createdAt,value
2022-08-20T00:00:13.897Z,56.48
2022-08-20T00:03:01.988Z,56.51
2022-08-20T00:05:32.517Z,56.34
2022-08-20T00:07:59.715Z,56.56
2022-08-20T00:10:26.779Z,56.73
2022-08-20T00:12:53.105Z,56.75
2022-08-20T00:15:21.756Z,57.03
2022-08-20T00:17:49.910Z,56.90
2022-08-20T00:20:16.372Z,57.07
2022-08-20T00:22:42.620Z,57.20
2022-08-20T00:25:09.738Z,57.19
2022-08-20T00:27:36.523Z,57.26
2022-08-20T00:30:04.792Z,57.36
2022-08-20T00:32:31.161Z,57.47
2022-08-20T00:34:57.512Z,57.57
2022-08-20T00:37:23.683Z,57.67
2022-08-20T00:39:49.929Z,57.70
2022-08-20T00:42:16.263Z,57.82
2022-08-20T00:44:45.912Z,57.79
2022-08-20T00:47:12.118Z,58.00
2022-08-20T00:49:38.449Z,58.10
2022-08-20T00:52:06.860Z,58.18
2022-08-20T00:54:34.952Z,58.39
2022-08-20T00:57:03.326Z,58.40
2022-08-20T00:59:30.958Z,58.41
2022-08-20T01:01:58.255Z,58.52
2022-08-20T01:04:28.846Z,58.80
2022-08-20T01:06:55.613Z,58.79
2022-08-20T01:09:50.036Z,58.82
2022-08-20T01:12:09.454Z,58.76
2022-08-20T01:14:44.421Z,58.71
2022-08-20T01:17:15.174Z,59.09
2022-08-20T01:19:43.216Z,59.26
2022-08-20T01:22:28.261Z,59.14
2022-08-20T01:25:08.325Z,59.20
2022-08-20T01:27:42.741Z,59.25
2022-08-20T01:30:09.587Z,59.55
2022-08-20T01:32:35.830Z,59.55
2022-08-20T01:35:02.227Z,59.61
2022-08-20T01:37:28.887Z,59.56
2022-08-20T01:39:57.990Z,59.84
2022-08-20T01:42:32.278Z,59.83
2022-08-20T01:45:19.143Z,60.16
2022-08-20T01:47:46.033Z,59.92
2022-08-20T01:50:17.709Z,60.16
2022-08-20T01:53:03.675Z,60.14
2022-08-20T01:55:30.611Z,60.16
2022-08-20T01:57:57.203Z,60.03
2022-08-20T02:00:23.582Z,60.10
2022-08-20T02:02:50.177Z,60.27
2022-08-20T02:05:16.799Z,60.19
2022-08-20T02:07:42.994Z,60.35
2022-08-20T02:10:10.491Z,60.43
2022-08-20T02:12:36.859Z,60.36
2022-08-20T02:15:04.086Z,60.41
2022-08-20T02:17:30.473Z,60.57
2022-08-20T02:20:00.791Z,60.69
2022-08-20T02:22:44.223Z,60.78
2022-08-20T02:25:17.122Z,60.79
2022-08-20T02:27:44.793Z,61.03
2022-08-20T02:30:21.192Z,60.91
2022-08-20T02:32:56.355Z,61.14
2022-08-20T02:35:23.676Z,61.16
2022-08-20T02:37:51.594Z,61.19
2022-08-20T02:40:18.781Z,61.38
2022-08-20T02:42:57.202Z,61.30
2022-08-20T02:45:23.407Z,61.26
2022-08-20T02:47:51.809Z,61.36
2022-08-20T02:50:19.573Z,61.50
2022-08-20T02:52:48.819Z,61.50
2022-08-20T02:55:28.250Z,61.67
2022-08-20T02:57:55.763Z,61.70
2022-08-20T03:00:25.471Z,61.81
2022-08-20T03:02:51.666Z,61.86
2022-08-20T03:05:18.802Z,61.95
2022-08-20T03:07:46.267Z,62.00
2022-08-20T03:10:13.444Z,62.21
2022-08-20T03:12:40.178Z,62.01
2022-08-20T03:15:08.845Z,62.21
2022-08-20T03:17:44.305Z,62.16
2022-08-20T03:20:10.915Z,62.28
2022-08-20T03:22:37.197Z,62.51
2022-08-20T03:25:04.336Z,62.49
2022-08-20T03:27:36.277Z,62.33
2022-08-20T03:30:06.583Z,62.48
2022-08-20T03:32:32.800Z,62.58
2022-08-20T03:34:59.088Z,62.52
2022-08-20T03:37:28.614Z,62.68
2022-08-20T03:39:54.806Z,62.74
2022-08-20T03:42:21.045Z,62.79
2022-08-20T03:44:47.934Z,62.61
2022-08-20T03:47:25.180Z,62.84
2022-08-20T03:49:51.595Z,62.67
2022-08-20T03:52:17.827Z,62.81
2022-08-20T03:54:45.465Z,63.04
2022-08-20T03:57:13.090Z,62.85
2022-08-20T03:59:40.464Z,63.07
2022-08-20T04:02:06.712Z,63.15
2022-08-20T04:04:32.883Z,62.96
2022-08-20T04:06:59.098Z,63.18
2022-08-20T04:09:25.344Z,63.20
2022-08-20T04:11:53.112Z,63.23
2022-08-20T04:14:20.463Z,63.12
2022-08-20T04:16:47.105Z,63.15
2022-08-20T04:19:15.650Z,63.17
2022-08-20T04:21:41.914Z,63.03
2022-08-20T04:24:08.309Z,63.05
2022-08-20T04:26:54.330Z,63.01
2022-08-20T04:29:21.235Z,62.97
2022-08-20T04:31:47.953Z,62.63
2022-08-20T04:34:16.062Z,62.81
2022-08-20T04:36:42.517Z,62.75
2022-08-20T04:39:08.672Z,62.76
2022-08-20T04:41:34.845Z,62.67
2022-08-20T04:44:01.548Z,62.85
2022-08-20T04:46:27.822Z,62.88
2022-08-20T04:48:54.450Z,62.89
2022-08-20T04:51:23.432Z,62.65
2022-08-20T04:53:53.661Z,62.73
2022-08-20T04:56:22.911Z,62.84
2022-08-20T04:58:50.435Z,63.09
2022-08-20T05:01:16.734Z,63.07
2022-08-20T05:03:43.286Z,63.04
2022-08-20T05:06:10.236Z,63.08
2022-08-20T05:08:37.800Z,63.30
2022-08-20T05:11:33.182Z,63.34
2022-08-20T05:13:52.269Z,63.34
2022-08-20T05:16:19.076Z,63.32
2022-08-20T05:18:46.123Z,63.34
2022-08-20T05:21:19.805Z,63.28
2022-08-20T05:23:46.008Z,63.52
2022-08-20T05:26:12.406Z,63.50
2022-08-20T05:28:54.287Z,63.45
2022-08-20T05:31:32.229Z,63.35
2022-08-20T05:34:01.455Z,63.51
2022-08-20T05:36:28.758Z,63.55
2022-08-20T05:38:55.543Z,63.62
2022-08-20T05:41:28.462Z,63.58
2022-08-20T05:44:01.913Z,63.65
2022-08-20T05:46:30.391Z,63.54
2022-08-20T05:48:59.462Z,63.52
2022-08-20T05:51:27.229Z,63.71
2022-08-20T05:53:53.389Z,63.85
2022-08-20T05:56:19.663Z,63.73
2022-08-20T05:58:52.901Z,63.73
2022-08-20T06:01:19.409Z,63.70
2022-08-20T06:04:04.286Z,63.77
2022-08-20T06:06:44.134Z,63.56
2022-08-20T06:09:16.591Z,63.66
2022-08-20T06:11:54.788Z,63.42
2022-08-20T06:14:25.873Z,63.46
2022-08-20T06:16:57.868Z,63.58
2022-08-20T06:19:26.386Z,63.49
2022-08-20T06:21:53.208Z,63.45
2022-08-20T06:24:20.588Z,63.26
2022-08-20T06:26:46.945Z,63.25
2022-08-20T06:29:13.151Z,63.22
2022-08-20T06:31:39.979Z,63.26
2022-08-20T06:34:06.801Z,63.07
2022-08-20T06:36:33.744Z,62.93
2022-08-20T06:38:59.941Z,63.01
2022-08-20T06:41:37.015Z,63.07
2022-08-20T06:44:03.925Z,62.92
2022-08-20T06:46:30.126Z,63.05
2022-08-20T06:48:56.474Z,63.16
2022-08-20T06:51:22.754Z,63.07
2022-08-20T06:53:48.938Z,62.88
2022-08-20T06:56:15.893Z,62.94
2022-08-20T06:58:43.329Z,62.97
2022-08-20T07:01:11.261Z,62.74
2022-08-20T07:03:54.247Z,62.75
2022-08-20T07:06:26.275Z,62.61
2022-08-20T07:08:55.134Z,62.58
2022-08-20T07:11:27.205Z,62.28
2022-08-20T07:13:55.116Z,62.11
2022-08-20T07:16:21.303Z,62.06
2022-08-20T07:18:47.552Z,62.23
2022-08-20T07:21:13.732Z,61.82
2022-08-20T07:23:41.671Z,61.76
2022-08-20T07:26:07.942Z,61.42
2022-08-20T07:28:34.122Z,61.34
2022-08-20T07:31:20.415Z,61.15
2022-08-20T07:33:47.222Z,61.04
2022-08-20T07:36:17.046Z,60.69
2022-08-20T07:38:46.139Z,60.38
2022-08-20T07:41:12.701Z,60.19
2022-08-20T07:43:39.200Z,59.74
2022-08-20T07:46:08.784Z,59.74
2022-08-20T07:48:37.816Z,59.07
2022-08-20T07:51:04.411Z,58.92
2022-08-20T07:53:35.623Z,58.10
2022-08-20T07:56:06.735Z,57.37
2022-08-20T07:58:35.152Z,56.80
2022-08-20T08:01:01.846Z,56.24
2022-08-20T08:03:39.527Z,56.15
2022-08-20T08:06:14.847Z,56.00
2022-08-20T08:08:43.566Z,55.89
2022-08-20T08:11:10.002Z,55.74
2022-08-20T08:13:38.725Z,54.95
2022-08-20T08:16:06.021Z,55.20
2022-08-20T08:18:43.147Z,54.23
2022-08-20T08:21:12.228Z,53.93
2022-08-20T08:23:43.440Z,53.43
2022-08-20T08:26:15.960Z,53.03
2022-08-20T08:28:45.103Z,52.96
2022-08-20T08:31:11.560Z,52.45
2022-08-20T08:33:39.993Z,52.43
2022-08-20T08:36:08.922Z,52.02
2022-08-20T08:38:35.669Z,52.03
2022-08-20T08:41:22.176Z,51.54
2022-08-20T08:43:49.816Z,50.99
2022-08-20T08:46:17.994Z,51.04
2022-08-20T08:48:47.074Z,50.23
2022-08-20T08:51:15.538Z,50.19
2022-08-20T08:53:45.410Z,50.10
2022-08-20T08:56:13.633Z,49.96
2022-08-20T08:58:40.871Z,49.13
2022-08-20T09:01:53.045Z,47.06
2022-08-20T09:03:58.216Z,44.77
2022-08-20T09:06:24.755Z,43.85
2022-08-20T09:08:51.089Z,42.91
2022-08-20T09:11:19.177Z,41.19
2022-08-20T09:13:45.797Z,39.52
2022-08-20T09:16:12.392Z,37.74
2022-08-20T09:18:39.033Z,36.69
2022-08-20T09:21:06.789Z,35.72
2022-08-20T09:23:33.083Z,33.36
2022-08-20T09:25:59.231Z,32.33
2022-08-20T09:28:34.805Z,31.25
2022-08-20T09:31:01.772Z,29.95
2022-08-20T09:33:28.411Z,28.62
2022-08-20T09:35:54.771Z,26.87
2022-08-20T09:38:21.169Z,25.99
2022-08-20T09:40:47.474Z,25.52
2022-08-20T09:43:15.055Z,24.13
2022-08-20T09:45:41.371Z,23.35
2022-08-20T09:48:10.171Z,22.12
2022-08-20T09:50:38.373Z,20.89
2022-08-20T09:53:05.804Z,20.95
2022-08-20T09:55:38.691Z,20.86
2022-08-20T09:58:17.599Z,20.57
2022-08-20T10:00:44.111Z,20.33
2022-08-20T10:03:10.408Z,20.23
2022-08-20T10:05:36.637Z,19.77
2022-08-20T10:08:09.689Z,19.78
2022-08-20T10:10:36.001Z,19.34
2022-08-20T10:13:02.666Z,19.71
2022-08-20T10:15:29.518Z,19.89
2022-08-20T10:17:56.710Z,19.97
2022-08-20T10:20:23.388Z,19.48
2022-08-20T10:22:50.608Z,19.15
2022-08-20T10:25:18.228Z,18.96
2022-08-20T10:27:44.734Z,18.65
2022-08-20T10:30:11.359Z,18.79
2022-08-20T10:32:37.547Z,18.50
2022-08-20T10:35:04.140Z,17.95
2022-08-20T10:37:30.776Z,17.46
2022-08-20T10:39:57.745Z,17.20
2022-08-20T10:42:24.075Z,17.17
2022-08-20T10:44:50.412Z,17.29
2022-08-20T10:47:17.994Z,17.07
2022-08-20T10:49:44.350Z,17.09
2022-08-20T10:52:10.913Z,16.94
2022-08-20T10:54:41.344Z,16.73
2022-08-20T10:57:08.815Z,17.28
2022-08-20T10:59:39.034Z,17.64
2022-08-20T11:02:05.376Z,17.90
2022-08-20T11:04:31.752Z,18.50
2022-08-20T11:06:59.242Z,18.96
2022-08-20T11:09:27.928Z,19.22
2022-08-20T11:11:54.245Z,19.44
2022-08-20T11:14:20.697Z,20.17
2022-08-20T11:16:46.989Z,20.20
2022-08-20T11:19:13.252Z,20.80
2022-08-20T11:21:39.432Z,20.55
2022-08-20T11:24:05.709Z,20.77
2022-08-20T11:26:31.965Z,21.04
2022-08-20T11:28:58.343Z,21.23
2022-08-20T11:31:24.539Z,21.27
2022-08-20T11:33:50.841Z,21.47
2022-08-20T11:36:17.156Z,22.01
2022-08-20T11:38:43.708Z,22.01
2022-08-20T11:41:10.047Z,22.32
2022-08-20T11:43:36.265Z,22.68
2022-08-20T11:46:03.412Z,23.37
2022-08-20T11:48:29.910Z,23.77
2022-08-20T11:50:56.488Z,24.19
2022-08-20T11:53:23.157Z,24.48
2022-08-20T11:55:49.590Z,24.82
2022-08-20T11:58:16.681Z,25.19
2022-08-20T12:00:43.214Z,25.58
2022-08-20T12:03:10.402Z,26.16
2022-08-20T12:05:39.554Z,26.22
2022-08-20T12:08:06.003Z,26.61
2022-08-20T12:10:32.456Z,26.68
2022-08-20T12:12:58.923Z,27.01
2022-08-20T12:15:26.882Z,27.50
2022-08-20T12:17:53.856Z,27.82
2022-08-20T12:20:20.153Z,28.14
2022-08-20T12:22:46.520Z,28.50
2022-08-20T12:25:12.927Z,28.48
2022-08-20T12:27:39.374Z,29.01
2022-08-20T12:30:12.988Z,29.15
2022-08-20T12:32:39.475Z,29.51
2022-08-20T12:35:06.775Z,29.72
2022-08-20T12:37:33.224Z,29.78
2022-08-20T12:40:00.482Z,29.78
2022-08-20T12:42:27.060Z,30.04
2022-08-20T12:44:53.321Z,30.57
2022-08-20T12:47:24.309Z,30.29
2022-08-20T12:49:51.997Z,30.40
2022-08-20T12:52:19.393Z,30.62
2022-08-20T12:54:46.149Z,30.71
2022-08-20T12:57:16.389Z,31.25
2022-08-20T12:59:42.634Z,31.25
2022-08-20T13:02:14.363Z,31.69
2022-08-20T13:04:44.767Z,31.80
2022-08-20T13:07:11.999Z,31.95
2022-08-20T13:09:38.605Z,32.25
2022-08-20T13:13:15.040Z,32.32
2022-08-20T13:15:45.335Z,32.58
2022-08-20T13:18:13.091Z,32.56
2022-08-20T13:20:40.937Z,33.27
2022-08-20T13:23:08.903Z,33.44
2022-08-20T13:25:36.670Z,33.67
2022-08-20T13:28:04.923Z,33.78
2022-08-20T13:30:34.883Z,34.01
2022-08-20T13:33:02.874Z,33.72
2022-08-20T13:35:31.231Z,33.96
2022-08-20T13:37:58.892Z,34.11
2022-08-20T13:40:26.764Z,34.34
2022-08-20T13:42:54.673Z,34.75
2022-08-20T13:45:22.656Z,34.71
2022-08-20T13:47:54.389Z,34.75
2022-08-20T13:50:24.270Z,34.76
2022-08-20T13:52:52.101Z,34.47
2022-08-20T13:55:21.807Z,34.93
2022-08-20T13:57:51.233Z,34.92
2022-08-20T14:00:20.676Z,34.70
2022-08-20T14:02:48.326Z,34.84
2022-08-20T14:05:19.340Z,34.78
2022-08-20T14:07:47.715Z,34.93
2022-08-20T14:10:19.538Z,34.77
2022-08-20T14:12:48.234Z,34.79
2022-08-20T14:15:16.293Z,34.97
2022-08-20T14:17:50.748Z,35.16
2022-08-20T14:20:21.283Z,35.18
2022-08-20T14:22:49.282Z,35.09
2022-08-20T14:25:18.824Z,35.42
2022-08-20T14:27:46.711Z,35.25
2022-08-20T14:30:17.699Z,35.47
2022-08-20T14:32:45.439Z,35.04
2022-08-20T14:35:13.638Z,35.28
2022-08-20T14:37:45.774Z,35.08
2022-08-20T14:40:16.056Z,35.07
2022-08-20T14:42:44.539Z,35.13
2022-08-20T14:45:16.472Z,35.13
2022-08-20T14:47:54.000Z,35.25
2022-08-20T14:50:28.052Z,35.53
2022-08-20T14:52:56.808Z,35.64
2022-08-20T14:55:31.415Z,35.67
2022-08-20T14:57:59.232Z,35.60
2022-08-20T15:00:29.714Z,35.82
2022-08-20T15:02:57.862Z,36.03
2022-08-20T15:05:25.967Z,35.81
2022-08-20T15:07:56.561Z,35.89
2022-08-20T15:10:34.281Z,35.82
2022-08-20T15:13:02.796Z,35.76
2022-08-20T15:15:30.443Z,35.63
2022-08-20T15:18:03.484Z,36.06
2022-08-20T15:20:32.994Z,35.90
2022-08-20T15:23:01.080Z,36.10
2022-08-20T15:25:36.481Z,35.92
2022-08-20T15:28:08.749Z,36.16
2022-08-20T15:30:38.963Z,36.15
2022-08-20T15:33:08.104Z,36.29
2022-08-20T15:35:36.021Z,36.32
2022-08-20T15:38:04.322Z,36.37
2022-08-20T15:40:32.715Z,36.67
2022-08-20T15:43:01.251Z,36.73
2022-08-20T15:45:29.591Z,36.79
2022-08-20T15:48:13.684Z,36.95
2022-08-20T15:50:47.450Z,37.15
2022-08-20T15:53:22.982Z,37.49
2022-08-20T15:56:12.975Z,37.72
2022-08-20T15:58:59.098Z,37.66
2022-08-20T16:02:02.890Z,37.83
2022-08-20T16:04:49.257Z,38.16
2022-08-20T16:07:26.746Z,38.25
2022-08-20T16:10:01.726Z,38.36
2022-08-20T16:12:34.256Z,38.63
2022-08-20T16:15:09.531Z,38.73
2022-08-20T16:17:41.532Z,38.95
2022-08-20T16:20:38.742Z,39.13
2022-08-20T16:23:07.082Z,39.01
2022-08-20T16:25:55.749Z,39.28
2022-08-20T16:28:27.950Z,39.32
2022-08-20T16:31:03.589Z,39.64
2022-08-20T16:33:45.366Z,39.95
2022-08-20T16:36:37.786Z,40.03
2022-08-20T16:39:17.330Z,40.33
2022-08-20T16:41:46.782Z,40.42
2022-08-20T16:44:39.289Z,40.43
2022-08-20T16:47:28.132Z,40.82
2022-08-20T16:50:05.684Z,40.91
2022-08-20T16:52:34.152Z,41.23
2022-08-20T16:55:02.796Z,41.30
2022-08-20T16:57:30.542Z,41.57
2022-08-20T17:00:35.167Z,41.67
2022-08-20T17:03:06.732Z,41.96
2022-08-20T17:05:38.734Z,42.24
2022-08-20T17:08:08.704Z,42.53
2022-08-20T17:10:54.847Z,42.58
2022-08-20T17:13:29.255Z,42.79
2022-08-20T17:16:03.914Z,43.14
2022-08-20T17:18:36.678Z,43.29
2022-08-20T17:21:13.108Z,43.46
2022-08-20T17:23:55.980Z,43.81
2022-08-20T17:26:30.733Z,43.94
2022-08-20T17:29:02.743Z,44.20
2022-08-20T17:31:43.783Z,44.44
2022-08-20T17:34:23.217Z,44.56
2022-08-20T17:37:08.940Z,44.79
2022-08-20T17:39:46.380Z,45.02
2022-08-20T17:42:19.247Z,45.09
2022-08-20T17:44:52.673Z,45.37
2022-08-20T17:47:34.134Z,45.59
2022-08-20T17:50:13.180Z,45.83
2022-08-20T17:52:49.546Z,45.95
2022-08-20T17:55:18.548Z,46.11
2022-08-20T17:57:49.807Z,46.33
2022-08-20T18:00:25.699Z,46.45
2022-08-20T18:02:59.605Z,46.64
2022-08-20T18:05:30.693Z,46.89
2022-08-20T18:08:30.609Z,47.05
2022-08-20T18:11:12.362Z,47.31
2022-08-20T18:14:06.081Z,47.49
2022-08-20T18:16:43.711Z,47.68
2022-08-20T18:19:31.743Z,47.81
2022-08-20T18:22:06.915Z,48.06
2022-08-20T18:24:49.344Z,48.21
2022-08-20T18:27:20.539Z,48.39
2022-08-20T18:29:56.946Z,48.67
2022-08-20T18:32:44.315Z,48.72
2022-08-20T18:35:35.011Z,48.88
2022-08-20T18:38:29.364Z,49.12
2022-08-20T18:41:31.179Z,49.32
2022-08-20T18:44:07.930Z,49.38
2022-08-20T18:46:38.955Z,49.49
2022-08-20T18:49:08.579Z,49.68
2022-08-20T18:51:50.940Z,49.78
2022-08-20T18:54:29.085Z,49.86
2022-08-20T18:57:08.947Z,50.03
2022-08-20T18:59:40.996Z,50.00
2022-08-20T19:02:29.299Z,50.21
2022-08-20T19:05:02.358Z,50.21
2022-08-20T19:07:45.720Z,50.50
2022-08-20T19:10:40.576Z,50.48
2022-08-20T19:13:27.674Z,50.77
2022-08-20T19:16:02.357Z,50.92
2022-08-20T19:18:38.863Z,51.04
2022-08-20T19:21:08.949Z,51.05
2022-08-20T19:23:51.059Z,51.10
2022-08-20T19:26:25.389Z,51.18
2022-08-20T19:28:58.287Z,51.35
2022-08-20T19:31:33.795Z,51.43
2022-08-20T19:34:20.233Z,51.56
2022-08-20T19:36:57.083Z,51.62
2022-08-20T19:39:26.637Z,51.62
2022-08-20T19:42:04.616Z,51.88
2022-08-20T19:44:45.107Z,51.90
2022-08-20T19:47:24.413Z,52.00
2022-08-20T19:49:56.611Z,52.18
2022-08-20T19:52:48.005Z,52.21
2022-08-20T19:55:36.751Z,52.42
2022-08-20T19:58:26.107Z,52.65
2022-08-20T20:00:56.337Z,52.60
2022-08-20T20:03:25.680Z,52.53
2022-08-20T20:05:59.819Z,52.72
2022-08-20T20:08:30.561Z,52.84
2022-08-20T20:11:00.558Z,52.84
2022-08-20T20:13:33.273Z,52.96
2022-08-20T20:16:07.564Z,53.13
2022-08-20T20:18:38.026Z,53.12
2022-08-20T20:21:13.530Z,53.19
2022-08-20T20:23:46.956Z,53.35
2022-08-20T20:26:18.043Z,53.42
2022-08-20T20:28:52.993Z,53.60
2022-08-20T20:31:29.587Z,53.60
2022-08-20T20:34:00.003Z,53.77
2022-08-20T20:36:47.805Z,53.60
2022-08-20T20:39:31.944Z,53.83
2022-08-20T20:42:02.420Z,54.03
2022-08-20T20:44:37.107Z,54.13
2022-08-20T20:47:20.799Z,54.22
2022-08-20T20:49:53.222Z,54.38
2022-08-20T20:52:25.614Z,54.35
2022-08-20T20:55:11.911Z,54.40
2022-08-20T20:57:40.462Z,54.58
2022-08-20T21:00:13.707Z,54.61
2022-08-20T21:02:42.092Z,54.59
2022-08-20T21:05:11.561Z,54.80
2022-08-20T21:07:54.657Z,54.83
2022-08-20T21:10:24.919Z,54.93
2022-08-20T21:12:54.635Z,55.09
2022-08-20T21:15:24.639Z,55.11
2022-08-20T21:17:52.608Z,55.17
2022-08-20T21:20:22.407Z,55.23
2022-08-20T21:22:50.176Z,55.33
2022-08-20T21:25:18.923Z,55.48
2022-08-20T21:27:48.974Z,55.66
2022-08-20T21:30:17.247Z,55.56
2022-08-20T21:32:44.980Z,55.59
2022-08-20T21:35:13.457Z,55.72
2022-08-20T21:37:41.483Z,56.00
2022-08-20T21:40:10.673Z,56.00
2022-08-20T21:42:40.137Z,56.13
2022-08-20T21:45:10.697Z,56.00
2022-08-20T21:47:38.591Z,56.14
2022-08-20T21:50:08.010Z,56.21
2022-08-20T21:52:36.239Z,56.17
2022-08-20T21:55:10.337Z,56.14
2022-08-20T21:57:38.326Z,56.31
2022-08-20T22:00:15.147Z,56.36
2022-08-20T22:02:43.184Z,56.51
2022-08-20T22:05:11.520Z,56.50
2022-08-20T22:07:39.214Z,56.72
2022-08-20T22:10:07.478Z,56.69
2022-08-20T22:12:35.415Z,56.70
2022-08-20T22:15:05.361Z,56.96
2022-08-20T22:17:33.153Z,57.01
2022-08-20T22:20:02.361Z,57.12
2022-08-20T22:22:30.953Z,57.10
2022-08-20T22:24:59.021Z,57.24
2022-08-20T22:27:26.965Z,57.28
2022-08-20T22:29:54.676Z,57.56
2022-08-20T22:32:33.400Z,57.71
2022-08-20T22:35:11.861Z,57.88
2022-08-20T22:37:41.361Z,57.99
2022-08-20T22:40:09.931Z,58.04
2022-08-20T22:42:37.917Z,58.08
2022-08-20T22:45:14.654Z,58.20
2022-08-20T22:47:43.241Z,58.36
2022-08-20T22:50:12.707Z,58.34
2022-08-20T22:52:42.148Z,58.52
2022-08-20T22:55:10.556Z,58.49
2022-08-20T22:57:39.636Z,58.79
2022-08-20T23:00:11.874Z,58.71
2022-08-20T23:02:41.812Z,59.02
2022-08-20T23:05:14.972Z,59.14
2022-08-20T23:07:42.976Z,59.15
2022-08-20T23:10:10.873Z,59.22
2022-08-20T23:12:39.049Z,59.39
2022-08-20T23:15:07.647Z,59.54
2022-08-20T23:17:37.919Z,59.41
2022-08-20T23:20:07.753Z,59.53
2022-08-20T23:22:36.111Z,59.85
2022-08-20T23:25:05.416Z,59.80
2022-08-20T23:27:35.877Z,59.79
2022-08-20T23:30:05.055Z,59.92
2022-08-20T23:32:32.727Z,60.00
2022-08-20T23:35:00.479Z,60.17
2022-08-20T23:37:28.732Z,60.18
2022-08-20T23:39:56.493Z,60.32
2022-08-20T23:42:24.640Z,60.42
2022-08-20T23:44:52.370Z,60.53
2022-08-20T23:47:21.557Z,60.65
2022-08-20T23:49:49.664Z,60.51
2022-08-20T23:52:17.660Z,60.61
2022-08-20T23:54:45.598Z,60.81
2022-08-20T23:57:13.480Z,60.81
2022-08-20T23:59:41.765Z,60.91
